createdAt,value
2022-08-14T00:00:29.778Z,0.00
2022-08-14T00:01:26.903Z,0.00
2022-08-14T00:02:27.197Z,0.00
2022-08-14T00:03:29.376Z,0.00
2022-08-14T00:04:34.133Z,0.00
2022-08-14T00:05:27.826Z,0.00
2022-08-14T00:06:29.041Z,0.00
2022-08-14T00:07:26.804Z,0.00
2022-08-14T00:08:45.188Z,0.00
2022-08-14T00:09:27.785Z,0.00
2022-08-14T00:10:49.638Z,0.00
2022-08-14T00:11:31.415Z,0.00
2022-08-14T00:12:33.978Z,0.00
2022-08-14T00:13:27.744Z,0.00
2022-08-14T00:14:26.726Z,0.00
2022-08-14T00:15:26.712Z,0.00
2022-08-14T00:16:41.450Z,0.00
2022-08-14T00:17:27.722Z,0.00
2022-08-14T00:19:05.413Z,0.00
2022-08-14T00:19:27.662Z,0.00
2022-08-14T00:20:30.429Z,0.00
2022-08-14T00:21:28.314Z,0.00
2022-08-14T00:22:56.266Z,0.00
2022-08-14T00:23:27.686Z,0.00
2022-08-14T00:24:28.958Z,0.00
2022-08-14T00:25:41.742Z,0.00
2022-08-14T00:26:27.606Z,0.00
2022-08-14T00:27:26.588Z,0.00
2022-08-14T00:28:32.516Z,0.00
2022-08-14T00:29:27.607Z,0.00
2022-08-14T00:30:27.100Z,0.00
2022-08-14T00:31:35.080Z,0.00
2022-08-14T00:32:52.369Z,0.00
2022-08-14T00:33:50.981Z,0.00
2022-08-14T00:34:36.507Z,0.00
2022-08-14T00:36:47.059Z,0.00
2022-08-14T00:36:47.060Z,0.00
2022-08-14T00:37:27.475Z,0.00
2022-08-14T00:38:26.470Z,0.00
2022-08-14T00:39:26.579Z,0.00
2022-08-14T00:40:33.590Z,0.00
2022-08-14T00:41:27.466Z,0.00
2022-08-14T00:42:55.091Z,0.00
2022-08-14T00:43:32.136Z,0.00
2022-08-14T00:44:32.974Z,0.00
2022-08-14T00:45:27.432Z,0.00
2022-08-14T00:46:32.378Z,0.00
2022-08-14T00:47:27.389Z,0.00
2022-08-14T00:48:34.890Z,0.00
2022-08-14T00:49:27.355Z,0.00
2022-08-14T00:50:26.394Z,0.00
2022-08-14T00:51:34.842Z,0.00
2022-08-14T00:52:27.313Z,0.00
2022-08-14T00:53:26.326Z,0.00
2022-08-14T00:54:26.308Z,0.00
2022-08-14T00:55:26.328Z,0.00
2022-08-14T00:56:26.308Z,0.00
2022-08-14T00:57:27.275Z,0.00
2022-08-14T00:58:27.859Z,0.00
2022-08-14T00:59:27.249Z,0.00
2022-08-14T01:00:37.441Z,0.00
2022-08-14T01:01:27.348Z,0.00
2022-08-14T01:02:27.748Z,0.00
2022-08-14T01:03:26.197Z,0.00
2022-08-14T01:04:50.923Z,0.00
2022-08-14T01:05:27.219Z,0.00
2022-08-14T01:06:30.333Z,0.00
2022-08-14T01:07:27.505Z,0.00
2022-08-14T01:08:52.422Z,0.00
2022-08-14T01:09:27.143Z,0.00
2022-08-14T01:10:26.139Z,0.00
2022-08-14T01:11:35.252Z,0.00
2022-08-14T01:12:30.177Z,0.00
2022-08-14T01:13:26.120Z,0.00
2022-08-14T01:14:28.476Z,0.00
2022-08-14T01:15:31.767Z,0.00
2022-08-14T01:16:30.862Z,0.00
2022-08-14T01:17:26.103Z,0.00
2022-08-14T01:18:26.053Z,0.00
2022-08-14T01:19:26.054Z,0.00
2022-08-14T01:20:27.548Z,0.00
2022-08-14T01:21:26.013Z,0.00
2022-08-14T01:22:26.944Z,0.00
2022-08-14T01:23:26.028Z,0.00
2022-08-14T01:24:30.685Z,0.00
2022-08-14T01:25:26.999Z,0.00
2022-08-14T01:26:35.752Z,0.00
2022-08-14T01:27:26.945Z,0.00
2022-08-14T01:28:46.980Z,0.00
2022-08-14T01:29:36.430Z,0.00
2022-08-14T01:30:26.928Z,0.00
2022-08-14T01:31:25.968Z,0.00
2022-08-14T01:32:25.928Z,0.00
2022-08-14T01:33:25.948Z,0.00
2022-08-14T01:35:20.488Z,0.00
2022-08-14T01:36:03.330Z,0.00
2022-08-14T01:36:27.981Z,0.00
2022-08-14T01:37:26.085Z,0.00
2022-08-14T01:38:25.830Z,0.00
2022-08-14T01:39:25.913Z,0.00
2022-08-14T01:40:36.295Z,0.00
2022-08-14T01:41:30.158Z,0.00
2022-08-14T01:42:31.848Z,0.00
2022-08-14T01:43:26.803Z,0.00
2022-08-14T01:44:33.260Z,0.00
2022-08-14T01:45:26.782Z,0.00
2022-08-14T01:46:25.760Z,0.00
2022-08-14T01:47:26.732Z,0.00
2022-08-14T01:48:26.870Z,0.00
2022-08-14T01:49:25.723Z,0.00
2022-08-14T01:50:26.752Z,0.00
2022-08-14T01:51:25.684Z,0.00
2022-08-14T01:52:34.660Z,0.00
2022-08-14T01:53:26.665Z,0.00
2022-08-14T01:54:38.192Z,0.00
2022-08-14T01:55:26.690Z,0.00
2022-08-14T01:56:30.406Z,0.00
2022-08-14T01:57:26.625Z,0.00
2022-08-14T01:58:28.922Z,0.00
2022-08-14T01:59:25.624Z,0.00
2022-08-14T02:00:27.820Z,0.00
2022-08-14T02:01:25.588Z,0.00
2022-08-14T02:02:25.586Z,0.00
2022-08-14T02:03:29.958Z,0.00
2022-08-14T02:04:54.686Z,0.00
2022-08-14T02:05:26.586Z,0.00
2022-08-14T02:06:33.445Z,0.00
2022-08-14T02:07:34.554Z,0.00
2022-08-14T02:08:35.019Z,0.00
2022-08-14T02:09:26.489Z,0.00
2022-08-14T02:10:26.208Z,0.00
2022-08-14T02:11:25.478Z,0.00
2022-08-14T02:12:26.535Z,0.00
2022-08-14T02:13:25.478Z,0.00
2022-08-14T02:14:31.622Z,0.00
2022-08-14T02:15:26.507Z,0.00
2022-08-14T02:16:26.402Z,0.00
2022-08-14T02:17:25.429Z,0.00
2022-08-14T02:18:25.400Z,0.00
2022-08-14T02:19:25.459Z,0.00
2022-08-14T02:20:25.407Z,0.00
2022-08-14T02:21:25.365Z,0.00
2022-08-14T02:22:28.946Z,0.00
2022-08-14T02:23:32.400Z,0.00
2022-08-14T02:24:40.473Z,0.00
2022-08-14T02:25:29.872Z,0.00
2022-08-14T02:26:29.482Z,0.00
2022-08-14T02:28:23.175Z,0.00
2022-08-14T02:28:58.306Z,0.00
2022-08-14T02:29:30.449Z,0.00
2022-08-14T02:30:26.254Z,0.00
2022-08-14T02:31:36.128Z,0.00
2022-08-14T02:32:36.578Z,0.00
2022-08-14T02:33:26.247Z,0.00
2022-08-14T02:34:27.365Z,0.00
2022-08-14T02:35:26.515Z,0.00
2022-08-14T02:37:05.227Z,0.00
2022-08-14T02:37:26.186Z,0.00
2022-08-14T02:38:30.618Z,0.00
2022-08-14T02:39:26.195Z,0.00
2022-08-14T02:40:32.045Z,0.00
2022-08-14T02:41:28.619Z,0.00
2022-08-14T02:42:47.152Z,0.00
2022-08-14T02:43:26.119Z,0.00
2022-08-14T02:44:29.896Z,0.00
2022-08-14T02:45:25.102Z,0.00
2022-08-14T02:46:32.067Z,0.00
2022-08-14T02:47:26.117Z,0.00
2022-08-14T02:49:01.876Z,0.00
2022-08-14T02:49:26.076Z,0.00
2022-08-14T02:50:26.988Z,0.00
2022-08-14T02:51:25.088Z,0.00
2022-08-14T02:52:56.857Z,0.00
2022-08-14T02:53:26.077Z,0.00
2022-08-14T02:54:25.011Z,0.00
2022-08-14T02:55:25.007Z,0.00
2022-08-14T02:56:30.697Z,0.00
2022-08-14T02:57:39.410Z,0.00
2022-08-14T02:58:30.549Z,0.00
2022-08-14T02:59:25.993Z,0.00
2022-08-14T03:00:24.922Z,0.00
2022-08-14T03:01:26.194Z,0.00
2022-08-14T03:02:48.717Z,0.00
2022-08-14T03:03:25.893Z,0.00
2022-08-14T03:04:25.283Z,0.00
2022-08-14T03:05:24.941Z,0.00
2022-08-14T03:06:35.238Z,0.00
2022-08-14T03:07:25.854Z,0.00
2022-08-14T03:08:24.845Z,0.00
2022-08-14T03:09:24.846Z,0.00
2022-08-14T03:10:32.172Z,0.00
2022-08-14T03:11:25.841Z,0.00
2022-08-14T03:12:30.926Z,0.00
2022-08-14T03:13:25.786Z,0.00
2022-08-14T03:14:27.404Z,0.00
2022-08-14T03:15:24.816Z,0.00
2022-08-14T03:16:26.620Z,0.00
2022-08-14T03:17:24.747Z,0.00
2022-08-14T03:18:30.657Z,0.00
2022-08-14T03:19:25.715Z,0.00
2022-08-14T03:20:24.761Z,0.00
2022-08-14T03:21:24.729Z,0.00
2022-08-14T03:22:24.722Z,0.00
2022-08-14T03:23:24.703Z,0.00
2022-08-14T03:24:24.665Z,0.00
2022-08-14T03:25:24.679Z,0.00
2022-08-14T03:26:30.551Z,0.00
2022-08-14T03:27:26.424Z,0.00
2022-08-14T03:28:29.715Z,0.00
2022-08-14T03:29:26.428Z,4.00
2022-08-14T03:30:24.610Z,4.00
2022-08-14T03:31:27.773Z,4.00
2022-08-14T03:32:30.379Z,0.00
2022-08-14T03:33:25.578Z,4.00
2022-08-14T03:34:48.389Z,4.00
2022-08-14T03:35:30.952Z,4.00
2022-08-14T03:37:39.530Z,4.00
2022-08-14T03:37:51.187Z,4.00
2022-08-14T03:39:12.415Z,4.00
2022-08-14T03:39:27.479Z,4.00
2022-08-14T03:40:24.492Z,8.00
2022-08-14T03:41:24.533Z,8.00
2022-08-14T03:42:24.493Z,4.00
2022-08-14T03:43:25.454Z,8.00
2022-08-14T03:45:26.419Z,8.00
2022-08-14T03:45:35.497Z,8.00
2022-08-14T03:46:52.961Z,8.00
2022-08-14T03:47:33.685Z,8.00
2022-08-14T03:48:30.440Z,12.00
2022-08-14T03:49:28.562Z,12.00
2022-08-14T03:50:31.125Z,12.00
2022-08-14T03:51:25.375Z,12.00
2022-08-14T03:52:39.171Z,16.00
2022-08-14T03:53:25.354Z,12.00
2022-08-14T03:54:24.353Z,16.00
2022-08-14T03:55:24.350Z,16.00
2022-08-14T03:56:24.317Z,20.00
2022-08-14T03:57:24.395Z,16.00
2022-08-14T03:58:36.351Z,20.00
2022-08-14T03:59:28.529Z,20.00
2022-08-14T04:00:43.530Z,20.00
2022-08-14T04:01:25.332Z,20.00
2022-08-14T04:02:33.226Z,24.00
2022-08-14T04:03:25.241Z,20.00
2022-08-14T04:04:24.246Z,24.00
2022-08-14T04:05:24.229Z,24.00
2022-08-14T04:06:28.343Z,24.00
2022-08-14T04:07:25.244Z,24.00
2022-08-14T04:08:30.700Z,28.00
2022-08-14T04:09:26.758Z,24.00
2022-08-14T04:10:32.356Z,28.00
2022-08-14T04:11:25.155Z,32.00
2022-08-14T04:12:26.403Z,32.00
2022-08-14T04:13:24.157Z,32.00
2022-08-14T04:14:24.115Z,32.00
2022-08-14T04:15:24.092Z,36.00
2022-08-14T04:16:24.100Z,32.00
2022-08-14T04:17:24.105Z,36.00
2022-08-14T04:18:24.109Z,36.00
2022-08-14T04:19:24.568Z,40.00
2022-08-14T04:20:25.637Z,36.00
2022-08-14T04:21:24.054Z,40.00
2022-08-14T04:22:24.034Z,40.00
2022-08-14T04:23:29.419Z,40.00
2022-08-14T04:24:25.914Z,40.00
2022-08-14T04:25:24.011Z,44.00
2022-08-14T04:26:27.291Z,44.00
2022-08-14T04:27:24.987Z,44.00
2022-08-14T04:28:58.794Z,44.00
2022-08-14T04:29:25.011Z,48.00
2022-08-14T04:30:30.921Z,48.00
2022-08-14T04:33:00.115Z,48.00
2022-08-14T04:33:01.663Z,48.00
2022-08-14T04:33:25.170Z,52.00
2022-08-14T04:34:27.448Z,52.00
2022-08-14T04:35:23.946Z,52.00
2022-08-14T04:36:24.102Z,52.00
2022-08-14T04:37:25.228Z,52.00
2022-08-14T04:38:36.531Z,56.00
2022-08-14T04:39:24.896Z,52.00
2022-08-14T04:40:23.903Z,56.00
2022-08-14T04:41:23.845Z,56.00
2022-08-14T04:42:24.811Z,56.00
2022-08-14T04:43:23.831Z,60.00
2022-08-14T04:44:35.910Z,56.00
2022-08-14T04:45:24.907Z,60.00
2022-08-14T04:46:56.761Z,60.00
2022-08-14T04:47:24.834Z,60.00
2022-08-14T04:48:36.721Z,64.00
2022-08-14T04:49:24.815Z,60.00
2022-08-14T04:50:31.316Z,60.00
2022-08-14T04:51:24.788Z,64.00
2022-08-14T04:52:24.709Z,64.00
2022-08-14T04:53:26.456Z,64.00
2022-08-14T04:54:24.689Z,68.00
2022-08-14T04:55:23.688Z,64.00
2022-08-14T04:56:31.286Z,68.00
2022-08-14T04:57:24.718Z,68.00
2022-08-14T04:58:32.911Z,68.00
2022-08-14T04:59:24.627Z,72.00
2022-08-14T05:00:23.647Z,68.00
2022-08-14T05:01:23.669Z,68.00
2022-08-14T05:02:23.642Z,72.00
2022-08-14T05:03:25.377Z,72.00
2022-08-14T05:04:23.583Z,72.00
2022-08-14T05:05:23.579Z,72.00
2022-08-14T05:06:37.547Z,72.00
2022-08-14T05:07:54.261Z,72.00
2022-08-14T05:08:32.332Z,76.00
2022-08-14T05:09:24.530Z,76.00
2022-08-14T05:10:24.788Z,76.00
2022-08-14T05:11:23.522Z,76.00
2022-08-14T05:13:10.885Z,76.00
2022-08-14T05:13:30.044Z,76.00
2022-08-14T05:14:45.866Z,80.00
2022-08-14T05:15:24.467Z,80.00
2022-08-14T05:16:23.459Z,76.00
2022-08-14T05:17:23.461Z,80.00
2022-08-14T05:19:16.798Z,80.00
2022-08-14T05:19:27.310Z,84.00
2022-08-14T05:21:10.915Z,84.00
2022-08-14T05:22:00.192Z,80.00
2022-08-14T05:22:24.392Z,80.00
2022-08-14T05:23:23.385Z,84.00
2022-08-14T05:24:23.417Z,84.00
2022-08-14T05:25:23.358Z,84.00
2022-08-14T05:26:23.404Z,88.00
2022-08-14T05:27:24.081Z,88.00
2022-08-14T05:28:23.309Z,84.00
2022-08-14T05:29:23.446Z,84.00
2022-08-14T05:30:23.316Z,88.00
2022-08-14T05:31:23.301Z,88.00
2022-08-14T05:32:27.167Z,88.00
2022-08-14T05:33:23.269Z,92.00
2022-08-14T05:34:23.273Z,88.00
2022-08-14T05:35:24.273Z,88.00
2022-08-14T05:36:23.974Z,92.00
2022-08-14T05:37:23.208Z,92.00
2022-08-14T05:38:31.614Z,92.00
2022-08-14T05:39:24.225Z,92.00
2022-08-14T05:40:23.234Z,92.00
2022-08-14T05:41:23.180Z,92.00
2022-08-14T05:42:29.511Z,92.00
2022-08-14T05:43:24.159Z,92.00
2022-08-14T05:44:29.709Z,96.00
2022-08-14T05:45:24.213Z,96.00
2022-08-14T05:46:23.144Z,96.00
2022-08-14T05:47:23.225Z,96.00
2022-08-14T05:48:23.417Z,96.00
2022-08-14T05:49:26.135Z,96.00
2022-08-14T05:50:24.105Z,96.00
2022-08-14T05:51:23.134Z,96.00
2022-08-14T05:52:26.426Z,100.00
2022-08-14T05:53:24.048Z,100.00
2022-08-14T05:54:27.045Z,96.00
2022-08-14T05:55:23.288Z,100.00
2022-08-14T05:56:23.034Z,100.00
2022-08-14T05:57:23.008Z,100.00
2022-08-14T05:58:23.007Z,100.00
2022-08-14T05:59:36.399Z,104.00
2022-08-14T06:00:25.034Z,100.00
2022-08-14T06:01:24.137Z,100.00
2022-08-14T06:02:22.969Z,104.00
2022-08-14T06:03:22.969Z,104.00
2022-08-14T06:04:22.967Z,104.00
2022-08-14T06:05:23.305Z,104.00
2022-08-14T06:06:22.918Z,104.00
2022-08-14T06:07:22.980Z,104.00
2022-08-14T06:08:36.334Z,104.00
2022-08-14T06:09:23.891Z,104.00
2022-08-14T06:10:22.871Z,104.00
2022-08-14T06:11:29.918Z,108.00
2022-08-14T06:12:31.398Z,108.00
2022-08-14T06:13:23.842Z,104.00
2022-08-14T06:14:24.296Z,108.00
2022-08-14T06:15:27.557Z,108.00
2022-08-14T06:16:23.826Z,108.00
2022-08-14T06:17:25.760Z,108.00
2022-08-14T06:18:22.956Z,112.00
2022-08-14T06:19:23.454Z,108.00
2022-08-14T06:20:22.763Z,108.00
2022-08-14T06:21:22.965Z,108.00
2022-08-14T06:22:22.733Z,112.00
2022-08-14T06:23:22.735Z,112.00
2022-08-14T06:24:22.763Z,108.00
2022-08-14T06:25:22.720Z,112.00
2022-08-14T06:26:22.753Z,112.00
2022-08-14T06:27:23.702Z,112.00
2022-08-14T06:28:27.988Z,112.00
2022-08-14T06:29:23.754Z,116.00
2022-08-14T06:30:22.672Z,112.00
2022-08-14T06:31:22.913Z,112.00
2022-08-14T06:32:37.645Z,116.00
2022-08-14T06:33:23.680Z,116.00
2022-08-14T06:35:03.188Z,116.00
2022-08-14T06:35:23.636Z,112.00
2022-08-14T06:36:22.647Z,116.00
2022-08-14T06:37:22.620Z,116.00
2022-08-14T06:38:23.274Z,120.00
2022-08-14T06:39:36.635Z,120.00
2022-08-14T06:40:27.117Z,116.00
2022-08-14T06:41:35.896Z,120.00
2022-08-14T06:42:43.336Z,116.00
2022-08-14T06:43:28.413Z,120.00
2022-08-14T06:44:32.231Z,120.00
2022-08-14T06:45:26.320Z,124.00
2022-08-14T06:46:32.301Z,120.00
2022-08-14T06:47:24.038Z,120.00
2022-08-14T06:48:22.479Z,120.00
2022-08-14T06:49:22.450Z,120.00
2022-08-14T06:50:27.642Z,120.00
2022-08-14T06:51:23.442Z,120.00
2022-08-14T06:52:22.442Z,124.00
2022-08-14T06:53:22.419Z,124.00
2022-08-14T06:54:23.438Z,124.00
2022-08-14T06:55:27.869Z,124.00
2022-08-14T06:56:23.364Z,124.00
2022-08-14T06:57:22.424Z,124.00
2022-08-14T06:58:28.597Z,128.00
2022-08-14T06:59:23.338Z,124.00
2022-08-14T07:00:26.974Z,124.00
2022-08-14T07:01:27.760Z,128.00
2022-08-14T07:02:22.307Z,128.00
2022-08-14T07:03:22.304Z,124.00
2022-08-14T07:04:23.842Z,128.00
2022-08-14T07:05:23.110Z,128.00
2022-08-14T07:06:46.835Z,132.00
2022-08-14T07:07:23.249Z,128.00
2022-08-14T07:08:22.241Z,128.00
2022-08-14T07:09:22.640Z,132.00
2022-08-14T07:10:22.369Z,132.00
2022-08-14T07:11:22.268Z,132.00
2022-08-14T07:12:56.397Z,128.00
2022-08-14T07:13:23.200Z,132.00
2022-08-14T07:14:22.188Z,132.00
2022-08-14T07:15:22.209Z,132.00
2022-08-14T07:16:22.237Z,132.00
2022-08-14T07:17:23.158Z,136.00
2022-08-14T07:18:22.127Z,132.00
2022-08-14T07:19:22.189Z,132.00
2022-08-14T07:20:30.906Z,132.00
2022-08-14T07:21:23.101Z,136.00
2022-08-14T07:22:22.090Z,136.00
2022-08-14T07:23:22.262Z,136.00
2022-08-14T07:24:26.469Z,136.00
2022-08-14T07:25:32.169Z,136.00
2022-08-14T07:26:23.053Z,136.00
2022-08-14T07:27:22.032Z,136.00
2022-08-14T07:28:22.055Z,136.00
2022-08-14T07:29:26.057Z,136.00
2022-08-14T07:30:34.329Z,140.00
2022-08-14T07:31:23.053Z,136.00
2022-08-14T07:32:30.241Z,136.00
2022-08-14T07:33:29.264Z,136.00
2022-08-14T07:34:26.411Z,136.00
2022-08-14T07:35:22.943Z,136.00
2022-08-14T07:36:27.449Z,136.00
2022-08-14T07:37:22.973Z,140.00
2022-08-14T07:38:21.948Z,140.00
2022-08-14T07:39:27.499Z,136.00
2022-08-14T07:40:27.652Z,136.00
2022-08-14T07:41:23.214Z,136.00
2022-08-14T07:42:22.704Z,140.00
2022-08-14T07:43:21.898Z,144.00
2022-08-14T07:44:32.196Z,144.00
2022-08-14T07:45:22.853Z,148.00
2022-08-14T07:46:28.424Z,148.00
2022-08-14T07:47:22.908Z,148.00
2022-08-14T07:48:25.367Z,148.00
2022-08-14T07:49:24.299Z,152.00
2022-08-14T07:50:21.871Z,152.00
2022-08-14T07:51:21.805Z,156.00
2022-08-14T07:52:22.167Z,156.00
2022-08-14T07:53:22.770Z,160.00
2022-08-14T07:54:23.650Z,160.00
2022-08-14T07:55:22.741Z,164.00
2022-08-14T07:56:47.912Z,164.00
2022-08-14T07:57:25.136Z,168.00
2022-08-14T07:58:33.932Z,168.00
2022-08-14T07:59:40.656Z,168.00
2022-08-14T08:00:29.916Z,168.00
2022-08-14T08:01:22.687Z,172.00
2022-08-14T08:02:21.887Z,172.00
2022-08-14T08:03:23.660Z,172.00
2022-08-14T08:04:25.034Z,176.00
2022-08-14T08:05:21.679Z,176.00
2022-08-14T08:06:21.625Z,176.00
2022-08-14T08:07:21.692Z,180.00
2022-08-14T08:08:26.551Z,180.00
2022-08-14T08:09:22.607Z,180.00
2022-08-14T08:10:46.029Z,184.00
2022-08-14T08:11:22.557Z,184.00
2022-08-14T08:12:24.944Z,188.00
2022-08-14T08:13:24.467Z,188.00
2022-08-14T08:14:21.532Z,188.00
2022-08-14T08:15:21.518Z,192.00
2022-08-14T08:16:21.527Z,188.00
2022-08-14T08:17:21.510Z,188.00
2022-08-14T08:18:29.290Z,196.00
2022-08-14T08:19:22.495Z,196.00
2022-08-14T08:20:21.470Z,196.00
2022-08-14T08:21:21.464Z,196.00
2022-08-14T08:22:22.450Z,200.00
2022-08-14T08:23:21.472Z,200.00
2022-08-14T08:24:22.430Z,200.00
2022-08-14T08:25:21.450Z,204.00
2022-08-14T08:26:21.399Z,200.00
2022-08-14T08:27:21.631Z,196.00
2022-08-14T08:28:25.519Z,200.00
2022-08-14T08:29:28.384Z,196.00
2022-08-14T08:30:22.381Z,200.00
2022-08-14T08:31:21.359Z,200.00
2022-08-14T08:32:21.367Z,204.00
2022-08-14T08:33:22.693Z,200.00
2022-08-14T08:34:23.725Z,204.00
2022-08-14T08:35:21.314Z,204.00
2022-08-14T08:36:21.299Z,208.00
2022-08-14T08:37:21.315Z,208.00
2022-08-14T08:39:18.097Z,208.00
2022-08-14T08:39:22.982Z,208.00
2022-08-14T08:40:21.343Z,208.00
2022-08-14T08:41:21.251Z,208.00
2022-08-14T08:42:24.501Z,212.00
2022-08-14T08:43:22.214Z,212.00
2022-08-14T08:44:33.098Z,212.00
2022-08-14T08:45:22.226Z,212.00
2022-08-14T08:46:23.836Z,216.00
2022-08-14T08:47:21.197Z,216.00
2022-08-14T08:48:31.429Z,216.00
2022-08-14T08:49:22.145Z,220.00
2022-08-14T08:50:31.009Z,224.00
2022-08-14T08:51:21.134Z,224.00
2022-08-14T08:52:24.463Z,224.00
2022-08-14T08:53:21.117Z,224.00
2022-08-14T08:54:26.846Z,228.00
2022-08-14T08:55:22.217Z,228.00
2022-08-14T08:56:30.324Z,232.00
2022-08-14T08:57:22.078Z,236.00
2022-08-14T08:58:25.153Z,236.00
2022-08-14T08:59:21.073Z,240.00
2022-08-14T09:00:25.522Z,240.00
2022-08-14T09:01:22.098Z,244.00
2022-08-14T09:02:21.021Z,244.00
2022-08-14T09:03:21.011Z,248.00
2022-08-14T09:04:21.009Z,252.00
2022-08-14T09:05:21.001Z,252.00
2022-08-14T09:07:00.998Z,256.00
2022-08-14T09:07:21.950Z,260.00
2022-08-14T09:08:26.618Z,264.00
2022-08-14T09:09:21.944Z,268.00
2022-08-14T09:10:22.210Z,272.00
2022-08-14T09:11:21.586Z,272.00
2022-08-14T09:12:20.927Z,280.00
2022-08-14T09:13:20.904Z,288.00
2022-08-14T09:14:20.905Z,296.00
2022-08-14T09:15:20.933Z,300.00
2022-08-14T09:16:20.894Z,300.00
2022-08-14T09:17:20.861Z,308.00
2022-08-14T09:18:21.845Z,312.00
2022-08-14T09:19:20.835Z,312.00
2022-08-14T09:20:26.401Z,312.00
2022-08-14T09:21:24.002Z,316.00
2022-08-14T09:22:34.938Z,320.00
2022-08-14T09:23:27.480Z,320.00
2022-08-14T09:24:29.325Z,324.00
2022-08-14T09:26:00.514Z,324.00
2022-08-14T09:26:21.907Z,328.00
2022-08-14T09:27:22.590Z,332.00
2022-08-14T09:28:20.739Z,332.00
2022-08-14T09:29:23.531Z,336.00
2022-08-14T09:30:33.148Z,340.00
2022-08-14T09:31:21.697Z,336.00
2022-08-14T09:32:59.179Z,336.00
2022-08-14T09:33:22.739Z,344.00
2022-08-14T09:34:27.124Z,344.00
2022-08-14T09:35:21.732Z,344.00
2022-08-14T09:36:20.660Z,348.00
2022-08-14T09:37:20.749Z,348.00
2022-08-14T09:38:26.076Z,348.00
2022-08-14T09:39:23.485Z,352.00
2022-08-14T09:40:21.767Z,356.00
2022-08-14T09:41:20.613Z,356.00
2022-08-14T09:42:33.199Z,360.00
2022-08-14T09:43:22.602Z,364.00
2022-08-14T09:44:20.920Z,368.00
2022-08-14T09:45:20.555Z,372.00
2022-08-14T09:46:21.274Z,376.00
2022-08-14T09:47:20.545Z,380.00
2022-08-14T09:48:20.573Z,380.00
2022-08-14T09:49:21.524Z,388.00
2022-08-14T09:50:20.524Z,388.00
2022-08-14T09:51:20.490Z,392.00
2022-08-14T09:52:32.880Z,392.00
2022-08-14T09:53:21.541Z,400.00
2022-08-14T09:54:23.353Z,396.00
2022-08-14T09:55:21.360Z,400.00
2022-08-14T09:56:30.498Z,400.00
2022-08-14T09:57:21.435Z,404.00
2022-08-14T09:58:22.813Z,404.00
2022-08-14T09:59:20.438Z,404.00
2022-08-14T10:00:28.700Z,400.00
2022-08-14T10:01:21.393Z,400.00
2022-08-14T10:02:20.432Z,396.00
2022-08-14T10:03:20.372Z,400.00
2022-08-14T10:04:32.983Z,400.00
2022-08-14T10:05:21.354Z,404.00
2022-08-14T10:06:20.338Z,404.00
2022-08-14T10:07:20.348Z,408.00
2022-08-14T10:08:20.579Z,412.00
2022-08-14T10:09:21.340Z,412.00
2022-08-14T10:10:23.521Z,416.00
2022-08-14T10:11:23.356Z,416.00
2022-08-14T10:12:28.789Z,420.00
2022-08-14T10:13:21.263Z,416.00
2022-08-14T10:14:35.409Z,420.00
2022-08-14T10:15:21.231Z,420.00
2022-08-14T10:16:25.737Z,424.00
2022-08-14T10:17:21.210Z,428.00
2022-08-14T10:18:20.237Z,432.00
2022-08-14T10:19:20.468Z,436.00
2022-08-14T10:20:40.875Z,432.00
2022-08-14T10:21:22.587Z,440.00
2022-08-14T10:23:11.910Z,448.00
2022-08-14T10:23:23.092Z,448.00
2022-08-14T10:24:20.164Z,448.00
2022-08-14T10:25:20.237Z,452.00
2022-08-14T10:26:23.182Z,448.00
2022-08-14T10:27:21.122Z,452.00
2022-08-14T10:28:51.549Z,452.00
2022-08-14T10:29:23.532Z,456.00
2022-08-14T10:30:22.407Z,456.00
2022-08-14T10:31:25.760Z,456.00
2022-08-14T10:32:28.848Z,456.00
2022-08-14T10:33:21.062Z,456.00
2022-08-14T10:34:20.042Z,464.00
2022-08-14T10:35:22.496Z,460.00
2022-08-14T10:36:34.765Z,460.00
2022-08-14T10:37:22.974Z,464.00
2022-08-14T10:38:19.987Z,464.00
2022-08-14T10:39:20.378Z,464.00
2022-08-14T10:40:37.007Z,464.00
2022-08-14T10:41:21.077Z,468.00
2022-08-14T10:42:21.271Z,476.00
2022-08-14T10:43:22.774Z,472.00
2022-08-14T10:44:20.992Z,476.00
2022-08-14T10:45:19.928Z,480.00
2022-08-14T10:47:25.084Z,484.00
2022-08-14T10:47:40.202Z,488.00
2022-08-14T10:48:34.472Z,488.00
2022-08-14T10:49:20.881Z,488.00
2022-08-14T10:50:19.899Z,484.00
2022-08-14T10:51:19.924Z,484.00
2022-08-14T10:52:22.021Z,484.00
2022-08-14T10:53:19.843Z,488.00
2022-08-14T10:54:35.953Z,484.00
2022-08-14T10:55:20.934Z,480.00
2022-08-14T10:56:21.951Z,484.00
2022-08-14T10:57:20.846Z,484.00
2022-08-14T10:58:19.776Z,484.00
2022-08-14T10:59:19.775Z,484.00
2022-08-14T11:00:20.408Z,484.00
2022-08-14T11:01:19.755Z,484.00
2022-08-14T11:02:22.354Z,488.00
2022-08-14T11:03:35.779Z,496.00
2022-08-14T11:04:25.066Z,504.00
2022-08-14T11:05:20.717Z,512.00
2022-08-14T11:06:20.016Z,536.00
2022-08-14T11:07:21.535Z,540.00
2022-08-14T11:08:19.701Z,528.00
2022-08-14T11:09:19.669Z,520.00
2022-08-14T11:10:19.659Z,524.00
2022-08-14T11:11:19.669Z,528.00
2022-08-14T11:12:34.904Z,532.00
2022-08-14T11:13:20.658Z,540.00
2022-08-14T11:14:22.917Z,544.00
2022-08-14T11:15:19.649Z,552.00
2022-08-14T11:16:19.773Z,560.00
2022-08-14T11:17:21.771Z,572.00
2022-08-14T11:18:20.418Z,584.00
2022-08-14T11:19:20.624Z,584.00
2022-08-14T11:20:19.553Z,596.00
2022-08-14T11:21:19.541Z,600.00
2022-08-14T11:22:55.940Z,608.00
2022-08-14T11:23:20.525Z,616.00
2022-08-14T11:24:54.816Z,620.00
2022-08-14T11:25:20.559Z,640.00
2022-08-14T11:26:19.505Z,652.00
2022-08-14T11:27:19.492Z,664.00
2022-08-14T11:28:19.671Z,672.00
2022-08-14T11:29:20.478Z,680.00
2022-08-14T11:30:51.367Z,692.00
2022-08-14T11:31:20.447Z,708.00
2022-08-14T11:32:19.427Z,712.00
2022-08-14T11:33:19.406Z,724.00
2022-08-14T11:34:32.387Z,736.00
2022-08-14T11:35:20.382Z,752.00
2022-08-14T11:36:19.377Z,764.00
2022-08-14T11:37:24.928Z,776.00
2022-08-14T11:38:20.370Z,792.00
2022-08-14T11:39:33.421Z,804.00
2022-08-14T11:40:28.688Z,812.00
2022-08-14T11:41:20.345Z,816.00
2022-08-14T11:42:56.921Z,828.00
2022-08-14T11:43:22.797Z,836.00
2022-08-14T11:44:45.841Z,840.00
2022-08-14T11:45:23.385Z,848.00
2022-08-14T11:46:30.763Z,856.00
2022-08-14T11:47:20.291Z,872.00
2022-08-14T11:49:02.048Z,876.00
2022-08-14T11:49:22.070Z,888.00
2022-08-14T11:50:33.669Z,896.00
2022-08-14T11:51:20.281Z,912.00
2022-08-14T11:52:19.219Z,920.00
2022-08-14T11:53:19.203Z,936.00
2022-08-14T11:54:19.408Z,944.00
2022-08-14T11:55:22.359Z,956.00
2022-08-14T11:56:25.805Z,968.00
2022-08-14T11:57:20.168Z,976.00
2022-08-14T11:58:23.863Z,992.00
2022-08-14T11:59:20.156Z,1008.00
2022-08-14T12:00:20.174Z,1020.00
2022-08-14T12:01:20.114Z,1036.00
2022-08-14T12:03:00.941Z,1048.00
2022-08-14T12:03:27.240Z,1056.00
2022-08-14T12:04:32.273Z,1068.00
2022-08-14T12:05:20.139Z,1072.00
2022-08-14T12:06:29.555Z,1076.00
2022-08-14T12:07:20.061Z,1088.00
2022-08-14T12:08:24.543Z,1100.00
2022-08-14T12:09:20.036Z,1108.00
2022-08-14T12:10:26.974Z,1120.00
2022-08-14T12:11:20.052Z,1120.00
2022-08-14T12:12:36.166Z,1140.00
2022-08-14T12:13:20.158Z,1148.00
2022-08-14T12:14:29.833Z,1156.00
2022-08-14T12:15:20.024Z,1160.00
2022-08-14T12:16:20.630Z,1164.00
2022-08-14T12:17:24.027Z,1176.00
2022-08-14T12:18:20.091Z,1164.00
2022-08-14T12:19:18.927Z,1172.00
2022-08-14T12:20:29.991Z,1168.00
2022-08-14T12:21:19.914Z,1148.00
2022-08-14T12:22:29.709Z,1148.00
2022-08-14T12:23:19.886Z,1144.00
2022-08-14T12:24:31.895Z,1136.00
2022-08-14T12:25:19.865Z,1136.00
2022-08-14T12:26:39.225Z,1132.00
2022-08-14T12:27:24.860Z,1144.00
2022-08-14T12:28:27.416Z,1132.00
2022-08-14T12:29:19.854Z,1128.00
2022-08-14T12:30:21.045Z,1108.00
2022-08-14T12:31:20.576Z,1112.00
2022-08-14T12:32:18.794Z,1140.00
2022-08-14T12:33:18.789Z,1140.00
2022-08-14T12:34:20.012Z,1100.00
2022-08-14T12:35:18.758Z,1064.00
2022-08-14T12:36:20.500Z,1156.00
2022-08-14T12:37:18.725Z,1176.00
2022-08-14T12:38:21.121Z,1168.00
2022-08-14T12:39:18.857Z,1180.00
2022-08-14T12:40:19.583Z,1192.00
2022-08-14T12:41:21.202Z,1180.00
2022-08-14T12:42:27.449Z,1196.00
2022-08-14T12:43:19.690Z,1152.00
2022-08-14T12:44:20.309Z,1148.00
2022-08-14T12:45:18.670Z,1152.00